sensor_id;sensor_type;location;lat;lon;timestamp;temperature;humidity
75961;SHT30;64644;48.914;2.254;2023-04-24T00:00:28;11.93;66.17
75961;SHT30;64644;48.914;2.254;2023-04-24T00:02:53;11.87;66.50
75961;SHT30;64644;48.914;2.254;2023-04-24T00:05:22;11.86;66.55
75961;SHT30;64644;48.914;2.254;2023-04-24T00:07:47;11.86;66.67
75961;SHT30;64644;48.914;2.254;2023-04-24T00:10:13;11.86;66.62
75961;SHT30;64644;48.914;2.254;2023-04-24T00:12:39;11.90;66.75
75961;SHT30;64644;48.914;2.254;2023-04-24T00:15:05;11.90;66.28
75961;SHT30;64644;48.914;2.254;2023-04-24T00:17:30;11.86;66.34
75961;SHT30;64644;48.914;2.254;2023-04-24T00:19:56;11.86;66.28
75961;SHT30;64644;48.914;2.254;2023-04-24T00:22:26;11.78;66.86
75961;SHT30;64644;48.914;2.254;2023-04-24T00:24:51;11.78;66.73
75961;SHT30;64644;48.914;2.254;2023-04-24T00:27:16;11.75;66.53
75961;SHT30;64644;48.914;2.254;2023-04-24T00:29:42;11.74;66.58
75961;SHT30;64644;48.914;2.254;2023-04-24T00:32:07;11.68;66.72
75961;SHT30;64644;48.914;2.254;2023-04-24T00:34:32;11.68;66.82
75961;SHT30;64644;48.914;2.254;2023-04-24T00:36:58;11.67;67.21
75961;SHT30;64644;48.914;2.254;2023-04-24T00:39:23;11.68;67.03
75961;SHT30;64644;48.914;2.254;2023-04-24T00:41:49;11.68;67.02
75961;SHT30;64644;48.914;2.254;2023-04-24T00:44:16;11.71;66.82
75961;SHT30;64644;48.914;2.254;2023-04-24T00:46:42;11.68;66.88
75961;SHT30;64644;48.914;2.254;2023-04-24T00:49:07;11.67;67.40
75961;SHT30;64644;48.914;2.254;2023-04-24T00:51:33;11.68;67.06
75961;SHT30;64644;48.914;2.254;2023-04-24T00:54:00;11.65;66.85
75961;SHT30;64644;48.914;2.254;2023-04-24T00:56:26;11.59;67.11
75961;SHT30;64644;48.914;2.254;2023-04-24T00:58:52;11.54;67.26
75961;SHT30;64644;48.914;2.254;2023-04-24T01:01:20;11.55;67.59
75961;SHT30;64644;48.914;2.254;2023-04-24T01:03:46;11.55;67.11
75961;SHT30;64644;48.914;2.254;2023-04-24T01:06:12;11.55;67.25
75961;SHT30;64644;48.914;2.254;2023-04-24T01:08:39;11.55;67.35
75961;SHT30;64644;48.914;2.254;2023-04-24T01:11:05;11.54;67.30
75961;SHT30;64644;48.914;2.254;2023-04-24T01:13:32;11.52;67.46
75961;SHT30;64644;48.914;2.254;2023-04-24T01:15:58;11.55;67.53
75961;SHT30;64644;48.914;2.254;2023-04-24T01:18:23;11.57;67.27
75961;SHT30;64644;48.914;2.254;2023-04-24T01:20:51;11.57;67.29
75961;SHT30;64644;48.914;2.254;2023-04-24T01:23:18;11.58;67.40
75961;SHT30;64644;48.914;2.254;2023-04-24T01:25:44;11.57;67.22
75961;SHT30;64644;48.914;2.254;2023-04-24T01:28:09;11.57;67.20
75961;SHT30;64644;48.914;2.254;2023-04-24T01:30:36;11.54;67.63
75961;SHT30;64644;48.914;2.254;2023-04-24T01:33:02;11.57;67.21
75961;SHT30;64644;48.914;2.254;2023-04-24T01:35:27;11.57;67.37
75961;SHT30;64644;48.914;2.254;2023-04-24T01:37:53;11.54;67.30
75961;SHT30;64644;48.914;2.254;2023-04-24T01:40:18;11.50;67.56
75961;SHT30;64644;48.914;2.254;2023-04-24T01:42:43;11.50;67.40
75961;SHT30;64644;48.914;2.254;2023-04-24T01:45:11;11.48;67.67
75961;SHT30;64644;48.914;2.254;2023-04-24T01:47:37;11.44;67.43
75961;SHT30;64644;48.914;2.254;2023-04-24T01:50:04;11.42;67.57
75961;SHT30;64644;48.914;2.254;2023-04-24T01:52:30;11.41;67.40
75961;SHT30;64644;48.914;2.254;2023-04-24T01:54:59;11.41;67.62
75961;SHT30;64644;48.914;2.254;2023-04-24T01:57:25;11.42;67.85
75961;SHT30;64644;48.914;2.254;2023-04-24T01:59:51;11.44;67.71
75961;SHT30;64644;48.914;2.254;2023-04-24T02:02:17;11.47;67.48
75961;SHT30;64644;48.914;2.254;2023-04-24T02:04:42;11.44;67.83
75961;SHT30;64644;48.914;2.254;2023-04-24T02:07:07;11.47;67.78
75961;SHT30;64644;48.914;2.254;2023-04-24T02:09:33;11.48;67.91
75961;SHT30;64644;48.914;2.254;2023-04-24T02:11:58;11.50;67.61
75961;SHT30;64644;48.914;2.254;2023-04-24T02:14:23;11.50;67.80
75961;SHT30;64644;48.914;2.254;2023-04-24T02:16:49;11.51;67.59
75961;SHT30;64644;48.914;2.254;2023-04-24T02:19:14;11.51;67.71
75961;SHT30;64644;48.914;2.254;2023-04-24T02:21:41;11.51;67.90
75961;SHT30;64644;48.914;2.254;2023-04-24T02:24:06;11.54;67.67
75961;SHT30;64644;48.914;2.254;2023-04-24T02:26:31;11.55;67.56
75961;SHT30;64644;48.914;2.254;2023-04-24T02:28:57;11.55;67.56
75961;SHT30;64644;48.914;2.254;2023-04-24T02:31:22;11.57;67.53
75961;SHT30;64644;48.914;2.254;2023-04-24T02:33:47;11.57;67.55
75961;SHT30;64644;48.914;2.254;2023-04-24T02:36:13;11.55;67.70
75961;SHT30;64644;48.914;2.254;2023-04-24T02:38:39;11.58;67.63
75961;SHT30;64644;48.914;2.254;2023-04-24T02:41:04;11.58;67.50
75961;SHT30;64644;48.914;2.254;2023-04-24T02:43:31;11.58;67.79
75961;SHT30;64644;48.914;2.254;2023-04-24T02:45:57;11.59;67.65
75961;SHT30;64644;48.914;2.254;2023-04-24T02:48:22;11.62;67.66
75961;SHT30;64644;48.914;2.254;2023-04-24T02:50:48;11.64;67.67
75961;SHT30;64644;48.914;2.254;2023-04-24T02:53:14;11.67;67.55
75961;SHT30;64644;48.914;2.254;2023-04-24T02:55:39;11.69;67.70
75961;SHT30;64644;48.914;2.254;2023-04-24T02:58:04;11.67;67.61
75961;SHT30;64644;48.914;2.254;2023-04-24T03:00:31;11.68;67.70
75961;SHT30;64644;48.914;2.254;2023-04-24T03:02:56;11.71;67.54
75961;SHT30;64644;48.914;2.254;2023-04-24T03:05:22;11.71;67.36
75961;SHT30;64644;48.914;2.254;2023-04-24T03:07:47;11.68;67.84
75961;SHT30;64644;48.914;2.254;2023-04-24T03:10:13;11.71;67.70
75961;SHT30;64644;48.914;2.254;2023-04-24T03:12:38;11.72;67.57
75961;SHT30;64644;48.914;2.254;2023-04-24T03:15:04;11.75;67.52
75961;SHT30;64644;48.914;2.254;2023-04-24T03:17:30;11.72;67.59
75961;SHT30;64644;48.914;2.254;2023-04-24T03:19:55;11.65;67.51
75961;SHT30;64644;48.914;2.254;2023-04-24T03:22:21;11.67;67.69
75961;SHT30;64644;48.914;2.254;2023-04-24T03:24:46;11.69;67.63
75961;SHT30;64644;48.914;2.254;2023-04-24T03:27:11;11.68;67.64
75961;SHT30;64644;48.914;2.254;2023-04-24T03:29:37;11.69;67.63
75961;SHT30;64644;48.914;2.254;2023-04-24T03:32:02;11.69;67.57
75961;SHT30;64644;48.914;2.254;2023-04-24T03:34:27;11.71;67.43
75961;SHT30;64644;48.914;2.254;2023-04-24T03:36:53;11.71;67.50
75961;SHT30;64644;48.914;2.254;2023-04-24T03:39:18;11.68;67.55
75961;SHT30;64644;48.914;2.254;2023-04-24T03:41:44;11.68;67.48
75961;SHT30;64644;48.914;2.254;2023-04-24T03:44:09;11.68;67.47
75961;SHT30;64644;48.914;2.254;2023-04-24T03:46:35;11.67;67.47
75961;SHT30;64644;48.914;2.254;2023-04-24T03:49:00;11.68;67.49
75961;SHT30;64644;48.914;2.254;2023-04-24T03:51:25;11.68;67.59
75961;SHT30;64644;48.914;2.254;2023-04-24T03:53:53;11.68;67.27
75961;SHT30;64644;48.914;2.254;2023-04-24T03:56:18;11.64;67.49
75961;SHT30;64644;48.914;2.254;2023-04-24T03:58:44;11.57;67.40
75961;SHT30;64644;48.914;2.254;2023-04-24T04:01:10;11.57;67.38
75961;SHT30;64644;48.914;2.254;2023-04-24T04:03:36;11.50;67.60
75961;SHT30;64644;48.914;2.254;2023-04-24T04:06:02;11.48;67.65
75961;SHT30;64644;48.914;2.254;2023-04-24T04:08:27;11.47;67.96
75961;SHT30;64644;48.914;2.254;2023-04-24T04:10:52;11.48;67.96
75961;SHT30;64644;48.914;2.254;2023-04-24T04:13:18;11.50;67.67
75961;SHT30;64644;48.914;2.254;2023-04-24T04:15:43;11.47;67.71
75961;SHT30;64644;48.914;2.254;2023-04-24T04:18:09;11.42;67.83
75961;SHT30;64644;48.914;2.254;2023-04-24T04:20:34;11.42;67.90
75961;SHT30;64644;48.914;2.254;2023-04-24T04:23:00;11.40;67.89
75961;SHT30;64644;48.914;2.254;2023-04-24T04:25:25;11.41;67.85
75961;SHT30;64644;48.914;2.254;2023-04-24T04:27:50;11.40;67.70
75961;SHT30;64644;48.914;2.254;2023-04-24T04:30:16;11.40;67.91
75961;SHT30;64644;48.914;2.254;2023-04-24T04:32:43;11.37;67.76
75961;SHT30;64644;48.914;2.254;2023-04-24T04:35:08;11.37;68.01
75961;SHT30;64644;48.914;2.254;2023-04-24T04:37:34;11.35;67.98
75961;SHT30;64644;48.914;2.254;2023-04-24T04:40:00;11.35;67.90
75961;SHT30;64644;48.914;2.254;2023-04-24T04:42:26;11.34;68.08
75961;SHT30;64644;48.914;2.254;2023-04-24T04:44:54;11.37;67.97
75961;SHT30;64644;48.914;2.254;2023-04-24T04:47:22;11.34;68.44
75961;SHT30;64644;48.914;2.254;2023-04-24T04:49:48;11.30;68.69
75961;SHT30;64644;48.914;2.254;2023-04-24T04:52:13;11.34;68.86
75961;SHT30;64644;48.914;2.254;2023-04-24T04:54:39;11.35;68.42
75961;SHT30;64644;48.914;2.254;2023-04-24T04:57:05;11.35;68.45
75961;SHT30;64644;48.914;2.254;2023-04-24T04:59:30;11.37;68.70
75961;SHT30;64644;48.914;2.254;2023-04-24T05:01:56;11.37;68.79
75961;SHT30;64644;48.914;2.254;2023-04-24T05:04:21;11.38;68.76
75961;SHT30;64644;48.914;2.254;2023-04-24T05:06:46;11.38;68.69
75961;SHT30;64644;48.914;2.254;2023-04-24T05:09:12;11.42;68.40
75961;SHT30;64644;48.914;2.254;2023-04-24T05:11:38;11.44;68.81
75961;SHT30;64644;48.914;2.254;2023-04-24T05:14:03;11.45;68.69
75961;SHT30;64644;48.914;2.254;2023-04-24T05:16:29;11.45;68.60
75961;SHT30;64644;48.914;2.254;2023-04-24T05:18:54;11.47;68.63
75961;SHT30;64644;48.914;2.254;2023-04-24T05:21:19;11.51;68.57
75961;SHT30;64644;48.914;2.254;2023-04-24T05:23:45;11.47;68.31
75961;SHT30;64644;48.914;2.254;2023-04-24T05:26:10;11.47;68.77
75961;SHT30;64644;48.914;2.254;2023-04-24T05:28:35;11.48;68.48
75961;SHT30;64644;48.914;2.254;2023-04-24T05:31:02;11.48;68.70
75961;SHT30;64644;48.914;2.254;2023-04-24T05:33:27;11.50;68.73
75961;SHT30;64644;48.914;2.254;2023-04-24T05:35:52;11.52;68.78
75961;SHT30;64644;48.914;2.254;2023-04-24T05:38:18;11.52;68.72
75961;SHT30;64644;48.914;2.254;2023-04-24T05:40:45;11.54;68.97
75961;SHT30;64644;48.914;2.254;2023-04-24T05:43:10;11.57;68.51
75961;SHT30;64644;48.914;2.254;2023-04-24T05:45:35;11.55;68.74
75961;SHT30;64644;48.914;2.254;2023-04-24T05:48:01;11.58;68.89
75961;SHT30;64644;48.914;2.254;2023-04-24T05:50:27;11.58;68.45
75961;SHT30;64644;48.914;2.254;2023-04-24T05:52:52;11.55;68.49
75961;SHT30;64644;48.914;2.254;2023-04-24T05:55:18;11.55;68.75
75961;SHT30;64644;48.914;2.254;2023-04-24T05:57:44;11.50;68.97
75961;SHT30;64644;48.914;2.254;2023-04-24T06:00:09;11.52;68.99
75961;SHT30;64644;48.914;2.254;2023-04-24T06:02:37;11.54;68.59
75961;SHT30;64644;48.914;2.254;2023-04-24T06:05:03;11.50;68.94
75961;SHT30;64644;48.914;2.254;2023-04-24T06:07:30;11.54;69.15
75961;SHT30;64644;48.914;2.254;2023-04-24T06:09:55;11.58;69.14
75961;SHT30;64644;48.914;2.254;2023-04-24T06:12:20;11.62;68.75
75961;SHT30;64644;48.914;2.254;2023-04-24T06:14:46;11.64;68.85
75961;SHT30;64644;48.914;2.254;2023-04-24T06:17:12;11.68;68.94
75961;SHT30;64644;48.914;2.254;2023-04-24T06:19:37;11.67;69.03
75961;SHT30;64644;48.914;2.254;2023-04-24T06:22:02;11.71;68.87
75961;SHT30;64644;48.914;2.254;2023-04-24T06:24:28;11.69;69.01
75961;SHT30;64644;48.914;2.254;2023-04-24T06:26:53;11.72;68.87
75961;SHT30;64644;48.914;2.254;2023-04-24T06:29:19;11.71;69.01
75961;SHT30;64644;48.914;2.254;2023-04-24T06:31:44;11.76;68.90
75961;SHT30;64644;48.914;2.254;2023-04-24T06:34:10;11.78;69.17
75961;SHT30;64644;48.914;2.254;2023-04-24T06:36:35;11.87;68.72
75961;SHT30;64644;48.914;2.254;2023-04-24T06:39:01;12.00;69.06
75961;SHT30;64644;48.914;2.254;2023-04-24T06:41:27;12.04;68.85
75961;SHT30;64644;48.914;2.254;2023-04-24T06:43:53;12.10;68.88
75961;SHT30;64644;48.914;2.254;2023-04-24T06:46:18;12.17;68.59
75961;SHT30;64644;48.914;2.254;2023-04-24T06:48:43;12.24;68.61
75961;SHT30;64644;48.914;2.254;2023-04-24T06:51:09;12.27;68.58
75961;SHT30;64644;48.914;2.254;2023-04-24T06:53:35;12.37;68.42
75961;SHT30;64644;48.914;2.254;2023-04-24T06:56:00;12.47;68.35
75961;SHT30;64644;48.914;2.254;2023-04-24T06:58:26;12.52;68.06
75961;SHT30;64644;48.914;2.254;2023-04-24T07:00:51;12.52;67.93
75961;SHT30;64644;48.914;2.254;2023-04-24T07:03:16;12.58;68.08
75961;SHT30;64644;48.914;2.254;2023-04-24T07:05:42;12.59;68.11
75961;SHT30;64644;48.914;2.254;2023-04-24T07:08:07;12.64;67.87
75961;SHT30;64644;48.914;2.254;2023-04-24T07:10:36;12.64;67.80
75961;SHT30;64644;48.914;2.254;2023-04-24T07:13:01;12.64;67.75
75961;SHT30;64644;48.914;2.254;2023-04-24T07:15:27;12.68;67.91
75961;SHT30;64644;48.914;2.254;2023-04-24T07:17:52;12.68;67.87
75961;SHT30;64644;48.914;2.254;2023-04-24T07:20:18;12.72;67.71
75961;SHT30;64644;48.914;2.254;2023-04-24T07:22:43;12.78;67.60
75961;SHT30;64644;48.914;2.254;2023-04-24T07:25:09;12.76;67.70
75961;SHT30;64644;48.914;2.254;2023-04-24T07:27:34;12.81;67.84
75961;SHT30;64644;48.914;2.254;2023-04-24T07:30:01;12.88;67.56
75961;SHT30;64644;48.914;2.254;2023-04-24T07:32:27;12.92;67.55
75961;SHT30;64644;48.914;2.254;2023-04-24T07:34:52;12.95;67.54
75961;SHT30;64644;48.914;2.254;2023-04-24T07:37:17;13.00;67.50
75961;SHT30;64644;48.914;2.254;2023-04-24T07:39:43;13.13;67.35
75961;SHT30;64644;48.914;2.254;2023-04-24T07:42:08;13.20;67.13
75961;SHT30;64644;48.914;2.254;2023-04-24T07:44:33;13.24;66.91
75961;SHT30;64644;48.914;2.254;2023-04-24T07:46:59;13.21;66.93
75961;SHT30;64644;48.914;2.254;2023-04-24T07:49:25;13.17;66.94
75961;SHT30;64644;48.914;2.254;2023-04-24T07:51:50;13.06;66.99
75961;SHT30;64644;48.914;2.254;2023-04-24T07:54:15;13.03;67.08
75961;SHT30;64644;48.914;2.254;2023-04-24T07:56:42;12.96;67.14
75961;SHT30;64644;48.914;2.254;2023-04-24T07:59:08;12.89;67.23
75961;SHT30;64644;48.914;2.254;2023-04-24T08:01:35;12.83;67.56
75961;SHT30;64644;48.914;2.254;2023-04-24T08:04:01;12.86;67.43
75961;SHT30;64644;48.914;2.254;2023-04-24T08:06:26;12.86;67.40
75961;SHT30;64644;48.914;2.254;2023-04-24T08:08:55;12.82;67.38
75961;SHT30;64644;48.914;2.254;2023-04-24T08:11:21;12.85;67.50
75961;SHT30;64644;48.914;2.254;2023-04-24T08:13:46;12.92;67.63
75961;SHT30;64644;48.914;2.254;2023-04-24T08:16:12;13.02;67.53
75961;SHT30;64644;48.914;2.254;2023-04-24T08:18:37;13.11;67.31
75961;SHT30;64644;48.914;2.254;2023-04-24T08:21:03;13.27;66.94
75961;SHT30;64644;48.914;2.254;2023-04-24T08:23:29;13.33;66.85
75961;SHT30;64644;48.914;2.254;2023-04-24T08:25:55;13.41;66.70
75961;SHT30;64644;48.914;2.254;2023-04-24T08:28:21;13.50;66.59
75961;SHT30;64644;48.914;2.254;2023-04-24T08:30:47;13.54;66.50
75961;SHT30;64644;48.914;2.254;2023-04-24T08:33:13;13.55;66.36
75961;SHT30;64644;48.914;2.254;2023-04-24T08:35:39;13.55;66.32
75961;SHT30;64644;48.914;2.254;2023-04-24T08:38:04;13.43;66.41
75961;SHT30;64644;48.914;2.254;2023-04-24T08:40:34;13.43;66.37
75961;SHT30;64644;48.914;2.254;2023-04-24T08:42:59;13.44;66.61
75961;SHT30;64644;48.914;2.254;2023-04-24T08:45:25;13.50;66.56
75961;SHT30;64644;48.914;2.254;2023-04-24T08:47:52;13.55;66.40
75961;SHT30;64644;48.914;2.254;2023-04-24T08:50:18;13.59;66.34
75961;SHT30;64644;48.914;2.254;2023-04-24T08:52:44;13.61;66.29
75961;SHT30;64644;48.914;2.254;2023-04-24T08:55:09;13.65;66.15
75961;SHT30;64644;48.914;2.254;2023-04-24T08:57:35;13.65;66.12
75961;SHT30;64644;48.914;2.254;2023-04-24T09:00:01;13.61;66.00
75961;SHT30;64644;48.914;2.254;2023-04-24T09:02:28;13.64;65.97
75961;SHT30;64644;48.914;2.254;2023-04-24T09:04:55;13.69;65.97
75961;SHT30;64644;48.914;2.254;2023-04-24T09:07:24;13.66;65.90
75961;SHT30;64644;48.914;2.254;2023-04-24T09:09:51;13.66;65.80
75961;SHT30;64644;48.914;2.254;2023-04-24T09:12:17;13.66;65.70
75961;SHT30;64644;48.914;2.254;2023-04-24T09:14:42;13.68;65.75
75961;SHT30;64644;48.914;2.254;2023-04-24T09:17:13;13.69;65.60
75961;SHT30;64644;48.914;2.254;2023-04-24T09:19:38;13.78;65.65
75961;SHT30;64644;48.914;2.254;2023-04-24T09:22:08;13.78;65.42
75961;SHT30;64644;48.914;2.254;2023-04-24T09:24:34;13.76;65.53
75961;SHT30;64644;48.914;2.254;2023-04-24T09:27:01;13.82;65.15
75961;SHT30;64644;48.914;2.254;2023-04-24T09:29:27;13.85;65.27
75961;SHT30;64644;48.914;2.254;2023-04-24T09:31:53;13.98;65.29
75961;SHT30;64644;48.914;2.254;2023-04-24T09:34:22;14.06;64.88
75961;SHT30;64644;48.914;2.254;2023-04-24T09:36:49;14.12;64.91
75961;SHT30;64644;48.914;2.254;2023-04-24T09:39:15;14.10;64.88
75961;SHT30;64644;48.914;2.254;2023-04-24T09:41:52;14.14;64.78
75961;SHT30;64644;48.914;2.254;2023-04-24T09:44:24;14.17;64.60
75961;SHT30;64644;48.914;2.254;2023-04-24T09:49:28;14.26;64.44
75961;SHT30;64644;48.914;2.254;2023-04-24T09:52:07;14.34;64.48
75961;SHT30;64644;48.914;2.254;2023-04-24T09:54:33;14.37;64.29
75961;SHT30;64644;48.914;2.254;2023-04-24T09:56:58;14.41;64.20
75961;SHT30;64644;48.914;2.254;2023-04-24T09:59:25;14.42;63.87
75961;SHT30;64644;48.914;2.254;2023-04-24T10:01:51;14.49;64.01
75961;SHT30;64644;48.914;2.254;2023-04-24T10:04:25;14.52;63.94
75961;SHT30;64644;48.914;2.254;2023-04-24T10:06:52;14.54;63.77
75961;SHT30;64644;48.914;2.254;2023-04-24T10:09:20;14.68;63.47
75961;SHT30;64644;48.914;2.254;2023-04-24T10:11:47;14.76;63.43
75961;SHT30;64644;48.914;2.254;2023-04-24T10:14:18;14.76;62.74
75961;SHT30;64644;48.914;2.254;2023-04-24T10:16:44;14.90;63.02
75961;SHT30;64644;48.914;2.254;2023-04-24T10:19:12;14.95;62.92
75961;SHT30;64644;48.914;2.254;2023-04-24T10:21:40;14.96;62.53
75961;SHT30;64644;48.914;2.254;2023-04-24T10:24:16;14.90;62.34
75961;SHT30;64644;48.914;2.254;2023-04-24T10:26:43;14.90;62.25
75961;SHT30;64644;48.914;2.254;2023-04-24T10:29:10;14.87;62.21
75961;SHT30;64644;48.914;2.254;2023-04-24T10:31:37;14.85;62.26
75961;SHT30;64644;48.914;2.254;2023-04-24T10:34:05;14.83;62.07
75961;SHT30;64644;48.914;2.254;2023-04-24T10:36:32;14.93;62.24
75961;SHT30;64644;48.914;2.254;2023-04-24T10:39:00;15.00;62.13
75961;SHT30;64644;48.914;2.254;2023-04-24T10:41:26;15.06;62.01
75961;SHT30;64644;48.914;2.254;2023-04-24T10:44:05;15.08;61.79
75961;SHT30;64644;48.914;2.254;2023-04-24T10:46:31;15.02;61.74
75961;SHT30;64644;48.914;2.254;2023-04-24T10:48:57;15.03;61.42
75961;SHT30;64644;48.914;2.254;2023-04-24T10:51:24;15.04;61.16
75961;SHT30;64644;48.914;2.254;2023-04-24T10:54:25;15.11;61.22
75961;SHT30;64644;48.914;2.254;2023-04-24T10:56:51;15.24;61.25
75961;SHT30;64644;48.914;2.254;2023-04-24T10:59:35;15.54;60.66
75961;SHT30;64644;48.914;2.254;2023-04-24T11:02:00;15.75;60.45
75961;SHT30;64644;48.914;2.254;2023-04-24T11:04:29;15.89;59.71
75961;SHT30;64644;48.914;2.254;2023-04-24T11:06:55;16.00;59.28
75961;SHT30;64644;48.914;2.254;2023-04-24T11:09:21;16.20;59.88
75961;SHT30;64644;48.914;2.254;2023-04-24T11:11:47;16.21;59.72
75961;SHT30;64644;48.914;2.254;2023-04-24T11:14:15;16.25;59.36
75961;SHT30;64644;48.914;2.254;2023-04-24T11:21:54;16.55;58.31
75961;SHT30;64644;48.914;2.254;2023-04-24T11:29:46;17.06;57.71
75961;SHT30;64644;48.914;2.254;2023-04-24T11:32:18;17.17;57.85
75961;SHT30;64644;48.914;2.254;2023-04-24T11:34:50;17.20;56.77
75961;SHT30;64644;48.914;2.254;2023-04-24T11:37:16;17.21;56.63
75961;SHT30;64644;48.914;2.254;2023-04-24T11:39:42;17.45;56.99
75961;SHT30;64644;48.914;2.254;2023-04-24T11:42:09;17.62;56.44
75961;SHT30;64644;48.914;2.254;2023-04-24T11:44:35;17.87;56.63
75961;SHT30;64644;48.914;2.254;2023-04-24T11:47:04;17.94;56.28
75961;SHT30;64644;48.914;2.254;2023-04-24T11:49:29;18.01;57.27
75961;SHT30;64644;48.914;2.254;2023-04-24T11:51:55;17.83;55.07
75961;SHT30;64644;48.914;2.254;2023-04-24T11:54:21;17.72;55.34
75961;SHT30;64644;48.914;2.254;2023-04-24T11:56:47;17.89;54.90
75961;SHT30;64644;48.914;2.254;2023-04-24T11:59:13;18.03;55.23
75961;SHT30;64644;48.914;2.254;2023-04-24T12:01:45;18.00;53.99
75961;SHT30;64644;48.914;2.254;2023-04-24T12:04:11;17.89;53.71
75961;SHT30;64644;48.914;2.254;2023-04-24T12:06:36;17.73;54.19
75961;SHT30;64644;48.914;2.254;2023-04-24T12:09:02;17.59;55.14
75961;SHT30;64644;48.914;2.254;2023-04-24T12:11:27;17.35;53.98
75961;SHT30;64644;48.914;2.254;2023-04-24T12:13:53;17.18;53.85
75961;SHT30;64644;48.914;2.254;2023-04-24T12:16:18;17.06;55.85
75961;SHT30;64644;48.914;2.254;2023-04-24T12:18:45;16.87;54.60
75961;SHT30;64644;48.914;2.254;2023-04-24T12:21:22;16.66;54.01
75961;SHT30;64644;48.914;2.254;2023-04-24T12:23:54;16.56;53.46
75961;SHT30;64644;48.914;2.254;2023-04-24T12:26:20;16.55;53.95
75961;SHT30;64644;48.914;2.254;2023-04-24T12:28:47;16.56;55.22
75961;SHT30;64644;48.914;2.254;2023-04-24T12:31:14;16.58;54.92
75961;SHT30;64644;48.914;2.254;2023-04-24T12:33:40;16.54;53.67
75961;SHT30;64644;48.914;2.254;2023-04-24T12:36:05;16.54;53.25
75961;SHT30;64644;48.914;2.254;2023-04-24T12:38:31;16.52;53.83
75961;SHT30;64644;48.914;2.254;2023-04-24T12:41:13;16.52;54.12
75961;SHT30;64644;48.914;2.254;2023-04-24T12:43:38;16.54;53.88
75961;SHT30;64644;48.914;2.254;2023-04-24T12:46:15;16.56;52.92
75961;SHT30;64644;48.914;2.254;2023-04-24T12:48:40;16.65;53.35
75961;SHT30;64644;48.914;2.254;2023-04-24T12:51:06;16.71;53.82
75961;SHT30;64644;48.914;2.254;2023-04-24T12:53:31;16.69;53.00
75961;SHT30;64644;48.914;2.254;2023-04-24T12:55:56;16.69;53.18
75961;SHT30;64644;48.914;2.254;2023-04-24T12:58:22;16.68;53.77
75961;SHT30;64644;48.914;2.254;2023-04-24T13:00:48;16.56;53.76
75961;SHT30;64644;48.914;2.254;2023-04-24T13:03:13;16.47;53.38
75961;SHT30;64644;48.914;2.254;2023-04-24T13:05:39;16.49;53.35
75961;SHT30;64644;48.914;2.254;2023-04-24T13:08:05;16.65;52.37
75961;SHT30;64644;48.914;2.254;2023-04-24T13:10:30;16.75;51.37
75961;SHT30;64644;48.914;2.254;2023-04-24T13:12:56;16.68;51.87
75961;SHT30;64644;48.914;2.254;2023-04-24T13:15:24;16.55;52.19
75961;SHT30;64644;48.914;2.254;2023-04-24T13:17:50;16.35;52.12
75961;SHT30;64644;48.914;2.254;2023-04-24T13:20:15;16.25;51.50
75961;SHT30;64644;48.914;2.254;2023-04-24T13:22:41;16.24;52.85
75961;SHT30;64644;48.914;2.254;2023-04-24T13:25:06;16.16;52.89
75961;SHT30;64644;48.914;2.254;2023-04-24T13:27:32;16.09;52.75
75961;SHT30;64644;48.914;2.254;2023-04-24T13:29:57;16.09;52.65
75961;SHT30;64644;48.914;2.254;2023-04-24T13:32:23;16.16;52.70
75961;SHT30;64644;48.914;2.254;2023-04-24T13:34:48;16.28;52.54
75961;SHT30;64644;48.914;2.254;2023-04-24T13:37:13;16.42;52.98
75961;SHT30;64644;48.914;2.254;2023-04-24T13:39:40;16.54;51.85
75961;SHT30;64644;48.914;2.254;2023-04-24T13:42:06;16.72;50.96
75961;SHT30;64644;48.914;2.254;2023-04-24T13:44:31;16.96;50.99
75961;SHT30;64644;48.914;2.254;2023-04-24T13:46:57;17.20;50.41
75961;SHT30;64644;48.914;2.254;2023-04-24T13:49:24;17.31;51.39
75961;SHT30;64644;48.914;2.254;2023-04-24T13:51:54;17.45;51.60
75961;SHT30;64644;48.914;2.254;2023-04-24T13:54:20;17.48;50.41
75961;SHT30;64644;48.914;2.254;2023-04-24T13:56:46;17.55;51.06
75961;SHT30;64644;48.914;2.254;2023-04-24T13:59:12;17.55;50.79
75961;SHT30;64644;48.914;2.254;2023-04-24T14:01:38;17.56;50.20
75961;SHT30;64644;48.914;2.254;2023-04-24T14:04:03;17.59;50.97
75961;SHT30;64644;48.914;2.254;2023-04-24T14:06:28;17.61;50.38
75961;SHT30;64644;48.914;2.254;2023-04-24T14:08:54;17.73;50.06
75961;SHT30;64644;48.914;2.254;2023-04-24T14:11:19;17.87;49.35
75961;SHT30;64644;48.914;2.254;2023-04-24T14:13:45;18.04;49.54
75961;SHT30;64644;48.914;2.254;2023-04-24T14:16:11;18.07;47.81
75961;SHT30;64644;48.914;2.254;2023-04-24T14:18:37;18.06;48.28
75961;SHT30;64644;48.914;2.254;2023-04-24T14:21:03;18.16;48.54
75961;SHT30;64644;48.914;2.254;2023-04-24T14:23:29;18.20;48.49
75961;SHT30;64644;48.914;2.254;2023-04-24T14:25:54;18.28;48.01
75961;SHT30;64644;48.914;2.254;2023-04-24T14:28:20;18.31;47.98
75961;SHT30;64644;48.914;2.254;2023-04-24T14:30:47;18.38;47.52
75961;SHT30;64644;48.914;2.254;2023-04-24T14:33:12;18.44;49.23
75961;SHT30;64644;48.914;2.254;2023-04-24T14:35:39;18.38;47.17
75961;SHT30;64644;48.914;2.254;2023-04-24T14:38:05;18.49;48.14
75961;SHT30;64644;48.914;2.254;2023-04-24T14:40:31;18.55;48.05
75961;SHT30;64644;48.914;2.254;2023-04-24T14:42:57;18.49;46.94
75961;SHT30;64644;48.914;2.254;2023-04-24T14:45:23;18.52;46.07
75961;SHT30;64644;48.914;2.254;2023-04-24T14:47:48;18.41;45.77
75961;SHT30;64644;48.914;2.254;2023-04-24T14:50:14;18.33;46.96
75961;SHT30;64644;48.914;2.254;2023-04-24T14:52:40;18.21;48.14
75961;SHT30;64644;48.914;2.254;2023-04-24T14:55:05;18.03;47.40
75961;SHT30;64644;48.914;2.254;2023-04-24T14:57:32;17.86;47.19
75961;SHT30;64644;48.914;2.254;2023-04-24T14:59:57;17.73;47.70
75961;SHT30;64644;48.914;2.254;2023-04-24T15:02:23;17.71;48.57
75961;SHT30;64644;48.914;2.254;2023-04-24T15:04:48;17.62;48.69
75961;SHT30;64644;48.914;2.254;2023-04-24T15:07:13;17.46;48.20
75961;SHT30;64644;48.914;2.254;2023-04-24T15:09:39;17.26;47.98
75961;SHT30;64644;48.914;2.254;2023-04-24T15:12:04;17.07;48.84
75961;SHT30;64644;48.914;2.254;2023-04-24T15:14:30;16.90;48.36
75961;SHT30;64644;48.914;2.254;2023-04-24T15:16:55;16.77;48.86
75961;SHT30;64644;48.914;2.254;2023-04-24T15:19:21;16.69;49.24
75961;SHT30;64644;48.914;2.254;2023-04-24T15:21:46;16.65;49.53
75961;SHT30;64644;48.914;2.254;2023-04-24T15:24:11;16.52;49.11
75961;SHT30;64644;48.914;2.254;2023-04-24T15:26:37;16.45;48.57
75961;SHT30;64644;48.914;2.254;2023-04-24T15:29:02;16.48;48.83
75961;SHT30;64644;48.914;2.254;2023-04-24T15:31:27;16.49;48.88
75961;SHT30;64644;48.914;2.254;2023-04-24T15:33:53;16.54;49.65
75961;SHT30;64644;48.914;2.254;2023-04-24T15:36:18;16.44;48.41